Observation data for Hart on 01/19/2019      Previous  Date  Next       Current Mesonet Observations  Soil Data  Daily Summary Page  Observations in Plain Language
KHRS 190600Z 34026G33KT M00/M01 A3005 RMK A01 T10031012  RH  095%=      5-min Rain = 0
KHRS 190605Z 34028G36KT M00/M02 A3005 RMK A01 T10031016  RH  092%=      5-min Rain = 0
KHRS 190610Z 34027G35KT M00/M02 A3005 RMK A01 T10041019  RH  091%=      5-min Rain = 0
KHRS 190615Z 34026G33KT M00/M02 A3005 RMK A01 T10041020  RH  090%=      5-min Rain = 0
KHRS 190620Z 33024G31KT M01/M02 A3005 RMK A01 T10051021  RH  090%=      5-min Rain = 0
KHRS 190625Z 34025G33KT M01/M02 A3006 RMK A01 T10061021  RH  091%=      5-min Rain = 0
KHRS 190630Z 33026G34KT M01/M02 A3006 RMK A01 T10061022  RH  090%=      5-min Rain = 0
KHRS 190635Z 33023G28KT M01/M02 A3007 RMK A01 T10061021  RH  090%=      5-min Rain = 0
KHRS 190640Z 33025G34KT M01/M02 A3007 RMK A01 T10061021  RH  091%=      5-min Rain = 0
KHRS 190645Z 33026G35KT M01/M02 A3008 RMK A01 T10051022  RH  090%=      5-min Rain = 0
KHRS 190650Z 33022G29KT M01/M02 A3008 RMK A01 T10061022  RH  090%=      5-min Rain = 0
KHRS 190655Z 33021G26KT M01/M02 A3008 RMK A01 T10071022  RH  090%=      5-min Rain = 0
KHRS 190700Z 33022G30KT M01/M02 A3008 RMK A01 T10081023  RH  090%=      5-min Rain = 0
KHRS 190705Z 34024G30KT M01/M03 A3009 RMK A01 T10081025  RH  089%=      5-min Rain = 0
KHRS 190710Z 34024G32KT M01/M03 A301 RMK A01 T10091027  RH  088%=      5-min Rain = 0
KHRS 190715Z 33021G26KT M01/M03 A301 RMK A01 T10101028  RH  089%=      5-min Rain = 0
KHRS 190720Z 33018G24KT M01/M03 A301 RMK A01 T10111027  RH  090%=      5-min Rain = 0
KHRS 190725Z 34023G31KT M01/M03 A301 RMK A01 T10111027  RH  089%=      5-min Rain = 0
KHRS 190730Z 34021G27KT M01/M03 A301 RMK A01 T10101029  RH  088%=      5-min Rain = 0
KHRS 190735Z 34019G26KT M01/M03 A301 RMK A01 T10121030  RH  089%=      5-min Rain = 0
KHRS 190740Z 33019G25KT M01/M03 A301 RMK A01 T10121029  RH  089%=      5-min Rain = 0
KHRS 190745Z 33018KT M01/M03 A3011 RMK A01 T10131030  RH  089%=      5-min Rain = 0
KHRS 190750Z 33018G23KT M01/M03 A3011 RMK A01 T10141030  RH  090%=      5-min Rain = 0
KHRS 190755Z 33018G25KT M01/M03 A3011 RMK A01 T10141030  RH  090%=      5-min Rain = 0
KHRS 190800Z 33019G24KT M02/M03 A3011 RMK A01 T10151031  RH  089%=      5-min Rain = 0
KHRS 190805Z 33018G30KT M02/M03 A3011 RMK A01 T10151033  RH  089%=      5-min Rain = 0
KHRS 190810Z 33021KT M02/M03 A3011 RMK A01 T10161034  RH  088%=      5-min Rain = 0
KHRS 190815Z 33022KT M02/M04 A3012 RMK A01 T10171036  RH  088%=      5-min Rain = 0
KHRS 190820Z 33022G28KT M02/M04 A3012 RMK A01 T10191037  RH  088%=      5-min Rain = 0
KHRS 190825Z 33022G32KT M02/M04 A3012 RMK A01 T10201038  RH  088%=      5-min Rain = 0
KHRS 190830Z 33023G30KT M02/M04 A3012 RMK A01 T10201039  RH  088%=      5-min Rain = 0
KHRS 190835Z 34021G28KT M02/M04 A3012 RMK A01 T10211040  RH  088%=      5-min Rain = 0
KHRS 190840Z 33019G25KT M02/M04 A3013 RMK A01 T10221040  RH  088%=      5-min Rain = 0
KHRS 190845Z 33017G24KT M02/M04 A3013 RMK A01 T10231040  RH  089%=      5-min Rain = 0
KHRS 190850Z 33016KT M02/M04 A3013 RMK A01 T10241040  RH  090%=      5-min Rain = 0
KHRS 190855Z 32014G19KT M03/M04 A3014 RMK A01 T10251040  RH  091%=      5-min Rain = 0
KHRS 190900Z 32013KT M02/M04 A3013 RMK A01 T10241039  RH  091%=      5-min Rain = 0
KHRS 190905Z 33014KT M02/M04 A3013 RMK A01 T10231038  RH  091%=      5-min Rain = 0
KHRS 190910Z 33015KT M02/M04 A3014 RMK A01 T10231038  RH  090%=      5-min Rain = 0
KHRS 190915Z 33015KT M02/M04 A3014 RMK A01 T10231038  RH  090%=      5-min Rain = 0
KHRS 190920Z 33014G19KT M02/M04 A3014 RMK A01 T10241039  RH  091%=      5-min Rain = 0
KHRS 190925Z 33014KT M03/M04 A3014 RMK A01 T10251039  RH  091%=      5-min Rain = 0
KHRS 190930Z 33013G18KT M03/M04 A3014 RMK A01 T10261039  RH  092%=      5-min Rain = 0
KHRS 190935Z 33012KT M03/M04 A3014 RMK A01 T10271040  RH  092%=      5-min Rain = 0
KHRS 190940Z 33011KT M03/M04 A3015 RMK A01 T10281040  RH  093%=      5-min Rain = 0
KHRS 190945Z 33010KT M03/M04 A3015 RMK A01 T10291040  RH  093%=      5-min Rain = 0
KHRS 190950Z 33009KT M03/M04 A3015 RMK A01 T10301041  RH  093%=      5-min Rain = 0
KHRS 190955Z 33010KT M03/M04 A3015 RMK A01 T10291040  RH  094%=      5-min Rain = 0
KHRS 191000Z 32010KT M03/M04 A3016 RMK A01 T10291039  RH  094%=      5-min Rain = 0
KHRS 191005Z 32011KT M03/M04 A3016 RMK A01 T10281038  RH  094%=      5-min Rain = 0
KHRS 191010Z 33012KT M03/M04 A3016 RMK A01 T10271038  RH  094%=      5-min Rain = 0
KHRS 191015Z 33012KT M03/M04 A3016 RMK A01 T10271038  RH  093%=      5-min Rain = 0
KHRS 191020Z 33012KT M03/M04 A3017 RMK A01 T10271039  RH  093%=      5-min Rain = 0
KHRS 191025Z 33013KT M03/M04 A3017 RMK A01 T10281039  RH  093%=      5-min Rain = 0
KHRS 191030Z 33014KT M03/M04 A3017 RMK A01 T10281040  RH  093%=      5-min Rain = 0
KHRS 191035Z 33013KT M03/M04 A3017 RMK A01 T10291041  RH  093%=      5-min Rain = 0
KHRS 191040Z 33013KT M03/M04 A3017 RMK A01 T10301041  RH  093%=      5-min Rain = 0
KHRS 191045Z 33013KT M03/M04 A3016 RMK A01 T10321042  RH  093%=      5-min Rain = 0
KHRS 191050Z 33013KT M03/M04 A3016 RMK A01 T10331043  RH  094%=      5-min Rain = 0
KHRS 191055Z 33012KT M03/M04 A3017 RMK A01 T10331043  RH  094%=      5-min Rain = 0
KHRS 191100Z 33011KT M03/M04 A3016 RMK A01 T10341043  RH  094%=      5-min Rain = 0
KHRS 191105Z 33010KT M03/M04 A3017 RMK A01 T10341044  RH  094%=      5-min Rain = 0
KHRS 191110Z 32009KT M04/M05 A3017 RMK A01 T10351045  RH  094%=      5-min Rain = 0
KHRS 191115Z 31008KT M04/M05 A3017 RMK A01 T10371046  RH  094%=      5-min Rain = 0
KHRS 191120Z 32007KT M04/M05 A3017 RMK A01 T10381047  RH  094%=      5-min Rain = 0
KHRS 191125Z 31006KT M04/M05 A3017 RMK A01 T10391048  RH  095%=      5-min Rain = 0
KHRS 191130Z 32006KT M04/M05 A3017 RMK A01 T10411049  RH  095%=      5-min Rain = 0
KHRS 191135Z 32006KT M04/M05 A3017 RMK A01 T10411049  RH  095%=      5-min Rain = 0
KHRS 191140Z 32006KT M04/M05 A3017 RMK A01 T10421049  RH  095%=      5-min Rain = 0
KHRS 191145Z 32006KT M04/M05 A3017 RMK A01 T10421049  RH  095%=      5-min Rain = 0
KHRS 191150Z 31005KT M04/M05 A3017 RMK A01 T10421050  RH  095%=      5-min Rain = 0
KHRS 191155Z 30006KT M04/M05 A3017 RMK A01 T10421050  RH  096%=      5-min Rain = 0
KHRS 191200Z 30006KT M04/M05 A3017 RMK A01 T10431051  RH  095%=      5-min Rain = 0
KHRS 191205Z 28005KT M04/M05 A3017 RMK A01 T10441052  RH  095%=      5-min Rain = 0
KHRS 191210Z 28006KT M04/M05 A3018 RMK A01 T10441051  RH  096%=      5-min Rain = 0
KHRS 191215Z 29006KT M04/M05 A3018 RMK A01 T10441051  RH  096%=      5-min Rain = 0
KHRS 191220Z 29007KT M04/M05 A3018 RMK A01 T10441051  RH  096%=      5-min Rain = 0
KHRS 191225Z 30008KT M04/M05 A3018 RMK A01 T10431050  RH  096%=      5-min Rain = 0
KHRS 191230Z 30008KT M04/M05 A3019 RMK A01 T10401047  RH  096%=      5-min Rain = 0
KHRS 191235Z 30008KT M04/M05 A3019 RMK A01 T10381046  RH  095%=      5-min Rain = 0
KHRS 191240Z 29009KT M04/M05 A3019 RMK A01 T10371046  RH  095%=      5-min Rain = 0
KHRS 191245Z 29009KT M04/M05 A302 RMK A01 T10361046  RH  094%=      5-min Rain = 0
KHRS 191250Z 30009KT M04/M05 A302 RMK A01 T10361047  RH  093%=      5-min Rain = 0
KHRS 191255Z 31009KT M04/M05 A302 RMK A01 T10361048  RH  093%=      5-min Rain = 0
KHRS 191300Z 31009KT M04/M05 A302 RMK A01 T10351045  RH  093%=      5-min Rain = 0
KHRS 191305Z 31010KT M03/M04 A302 RMK A01 T10291040  RH  093%=      5-min Rain = 0
KHRS 191310Z 31011KT M03/M04 A302 RMK A01 T10251038  RH  092%=      5-min Rain = 0
KHRS 191315Z 31010KT M02/M04 A3021 RMK A01 T10231038  RH  091%=      5-min Rain = 0
KHRS 191320Z 30009KT M02/M04 A3021 RMK A01 T10231038  RH  090%=      5-min Rain = 0
KHRS 191325Z 30011KT M02/M04 A3021 RMK A01 T10241039  RH  090%=      5-min Rain = 0
KHRS 191330Z 30012KT M03/M04 A3021 RMK A01 T10251039  RH  091%=      5-min Rain = 0
KHRS 191335Z 30011KT M03/M04 A3021 RMK A01 T10251040  RH  091%=      5-min Rain = 0
KHRS 191340Z 30011KT M03/M04 A3022 RMK A01 T10261040  RH  091%=      5-min Rain = 0
KHRS 191345Z 30011KT M03/M04 A3022 RMK A01 T10261041  RH  091%=      5-min Rain = 0
KHRS 191350Z 31011KT M03/M04 A3022 RMK A01 T10261040  RH  091%=      5-min Rain = 0
KHRS 191355Z 31010KT M03/M04 A3022 RMK A01 T10271041  RH  091%=      5-min Rain = 0
KHRS 191400Z 30009KT M03/M04 A3023 RMK A01 T10281042  RH  091%=      5-min Rain = 0
KHRS 191405Z 31010KT M03/M04 A3023 RMK A01 T10281042  RH  091%=      5-min Rain = 0
KHRS 191410Z 31009KT M03/M04 A3023 RMK A01 T10281042  RH  091%=      5-min Rain = 0
KHRS 191415Z 31010KT M03/M04 A3024 RMK A01 T10271041  RH  091%=      5-min Rain = 0
KHRS 191420Z 31010KT M03/M04 A3024 RMK A01 T10251040  RH  091%=      5-min Rain = 0
KHRS 191425Z 30009KT M03/M04 A3024 RMK A01 T10251040  RH  090%=      5-min Rain = 0
KHRS 191430Z 30008KT M02/M04 A3025 RMK A01 T10241039  RH  090%=      5-min Rain = 0
KHRS 191435Z 30008KT M02/M04 A3025 RMK A01 T10231038  RH  090%=      5-min Rain = 0
KHRS 191440Z 29008KT M02/M04 A3025 RMK A01 T10221037  RH  090%=      5-min Rain = 0
KHRS 191445Z 29008KT M02/M04 A3026 RMK A01 T10211035  RH  091%=      5-min Rain = 0
KHRS 191450Z 29009KT M02/M03 A3026 RMK A01 T10191034  RH  090%=      5-min Rain = 0
KHRS 191455Z 29009KT M02/M03 A3027 RMK A01 T10171032  RH  090%=      5-min Rain = 0
KHRS 191500Z 30009KT M01/M03 A3027 RMK A01 T10141031  RH  090%=      5-min Rain = 0
KHRS 191505Z 30009KT M01/M03 A3027 RMK A01 T10121029  RH  089%=      5-min Rain = 0
KHRS 191510Z 30008KT M01/M03 A3027 RMK A01 T10081026  RH  088%=      5-min Rain = 0
KHRS 191515Z 30009KT M01/M03 A3027 RMK A01 T10061026  RH  087%=      5-min Rain = 0
KHRS 191520Z 29008KT M00/M02 A3027 RMK A01 T10041024  RH  087%=      5-min Rain = 0
KHRS 191525Z 29008KT M00/M02 A3028 RMK A01 T10021023  RH  087%=      5-min Rain = 0
KHRS 191530Z 28008KT M00/M02 A3028 RMK A01 T10011021  RH  087%=      5-min Rain = 0
KHRS 191535Z 29008KT 00/M02 A3028 RMK A01 T00011020  RH  087%=      5-min Rain = 0
KHRS 191540Z 30008KT 01/M02 A3029 RMK A01 T00051016  RH  087%=      5-min Rain = 0
KHRS 191545Z 31010KT 01/M01 A3029 RMK A01 T00101014  RH  085%=      5-min Rain = 0
KHRS 191550Z 33013G19KT 02/M01 A3029 RMK A01 T00151014  RH  082%=      5-min Rain = 0
KHRS 191555Z 33013G18KT 02/M02 A3029 RMK A01 T00191016  RH  078%=      5-min Rain = 0
KHRS 191600Z 33011KT 02/M01 A3029 RMK A01 T00221011  RH  080%=      5-min Rain = 0
KHRS 191605Z 32011KT 03/M01 A3029 RMK A01 T00251009  RH  079%=      5-min Rain = 0
KHRS 191610Z 32014G19KT 03/M01 A303 RMK A01 T00251012  RH  077%=      5-min Rain = 0
KHRS 191615Z 33013G18KT 03/M01 A303 RMK A01 T00271009  RH  078%=      5-min Rain = 0
KHRS 191620Z 33016G22KT 03/M01 A303 RMK A01 T00281012  RH  076%=      5-min Rain = 0
KHRS 191625Z 34015KT 03/M01 A303 RMK A01 T00271013  RH  075%=      5-min Rain = 0
KHRS 191630Z 34015KT 03/M01 A3031 RMK A01 T00291011  RH  076%=      5-min Rain = 0
KHRS 191635Z 33015KT 03/M01 A303 RMK A01 T00311009  RH  076%=      5-min Rain = 0
KHRS 191640Z 33016KT 03/M01 A303 RMK A01 T00311010  RH  075%=      5-min Rain = 0
KHRS 191645Z 33016KT 03/M01 A3031 RMK A01 T00331009  RH  075%=      5-min Rain = 0
KHRS 191650Z 33018KT 03/M01 A3031 RMK A01 T00331011  RH  074%=      5-min Rain = 0
KHRS 191655Z 34016KT 04/M01 A3031 RMK A01 T00361007  RH  074%=      5-min Rain = 0
KHRS 191700Z 34017G23KT 04/M01 A3031 RMK A01 T00401007  RH  072%=      5-min Rain = 0
KHRS 191705Z 33018G23KT 04/M01 A3031 RMK A01 T00401009  RH  071%=      5-min Rain = 0
KHRS 191710Z 33016KT 04/M00 A3031 RMK A01 T00431004  RH  072%=      5-min Rain = 0
KHRS 191715Z 33015KT 05/M00 A3031 RMK A01 T00471001  RH  072%=      5-min Rain = 0
KHRS 191720Z 33016KT 05/M00 A3031 RMK A01 T00481003  RH  070%=      5-min Rain = 0
KHRS 191725Z 34016G22KT 05/M00 A3031 RMK A01 T00501004  RH  069%=      5-min Rain = 0
KHRS 191730Z 34018G24KT 05/M01 A3031 RMK A01 T00491006  RH  068%=      5-min Rain = 0
KHRS 191735Z 34019KT 05/M01 A3031 RMK A01 T00501008  RH  067%=      5-min Rain = 0
KHRS 191740Z 34018KT 05/M01 A3031 RMK A01 T00531006  RH  066%=      5-min Rain = 0
KHRS 191745Z 33018KT 06/M01 A3032 RMK A01 T00551006  RH  066%=      5-min Rain = 0
KHRS 191750Z 33019KT 05/M01 A3032 RMK A01 T00531010  RH  065%=      5-min Rain = 0
KHRS 191755Z 33018KT 06/M01 A3032 RMK A01 T00561007  RH  065%=      5-min Rain = 0
KHRS 191800Z 33018KT 06/M01 A3032 RMK A01 T00571008  RH  064%=      5-min Rain = 0
KHRS 191805Z 33017G22KT 06/M01 A3032 RMK A01 T00561009  RH  064%=      5-min Rain = 0
KHRS 191810Z 33018G23KT 06/M01 A3032 RMK A01 T00571007  RH  064%=      5-min Rain = 0
KHRS 191815Z 34018KT 06/M01 A3031 RMK A01 T00591008  RH  063%=      5-min Rain = 0
KHRS 191820Z 34018G24KT 06/M01 A3031 RMK A01 T00591011  RH  061%=      5-min Rain = 0
KHRS 191825Z 34017KT 06/M01 A3031 RMK A01 T00621009  RH  061%=      5-min Rain = 0
KHRS 191830Z 33017G22KT 06/M01 A3031 RMK A01 T00621009  RH  061%=      5-min Rain = 0
KHRS 191835Z 33017G22KT 06/M01 A3031 RMK A01 T00621011  RH  060%=      5-min Rain = 0
KHRS 191840Z 33017KT 06/M01 A3031 RMK A01 T00621011  RH  060%=      5-min Rain = 0
KHRS 191845Z 34017KT 07/M01 A303 RMK A01 T00651009  RH  060%=      5-min Rain = 0
KHRS 191850Z 33016KT 07/M01 A303 RMK A01 T00671009  RH  059%=      5-min Rain = 0
KHRS 191855Z 34015KT 07/M01 A303 RMK A01 T00671011  RH  058%=      5-min Rain = 0
KHRS 191900Z 33017KT 07/M01 A303 RMK A01 T00671010  RH  058%=      5-min Rain = 0
KHRS 191905Z 33016KT 07/M01 A303 RMK A01 T00671013  RH  057%=      5-min Rain = 0
KHRS 191910Z 34016KT 07/M01 A303 RMK A01 T00701013  RH  056%=      5-min Rain = 0
KHRS 191915Z 34017KT 07/M02 A3029 RMK A01 T00701015  RH  055%=      5-min Rain = 0
KHRS 191920Z 34016G21KT 07/M01 A3029 RMK A01 T00711014  RH  055%=      5-min Rain = 0
KHRS 191925Z 34016G21KT 07/M02 A3029 RMK A01 T00741016  RH  054%=      5-min Rain = 0
KHRS 191930Z 34017KT 07/M01 A3029 RMK A01 T00741013  RH  055%=      5-min Rain = 0
KHRS 191935Z 34016KT 08/M01 A3028 RMK A01 T00751014  RH  054%=      5-min Rain = 0
KHRS 191940Z 34015KT 08/M01 A3028 RMK A01 T00801013  RH  053%=      5-min Rain = 0
KHRS 191945Z 34015G21KT 08/M02 A3028 RMK A01 T00791017  RH  051%=      5-min Rain = 0
KHRS 191950Z 34015G20KT 08/M02 A3028 RMK A01 T00791016  RH  052%=      5-min Rain = 0
KHRS 191955Z 34014G19KT 08/M02 A3028 RMK A01 T00771018  RH  052%=      5-min Rain = 0
KHRS 192000Z 34015KT 08/M02 A3027 RMK A01 T00791017  RH  051%=      5-min Rain = 0
KHRS 192005Z 33014G19KT 08/M02 A3027 RMK A01 T00791015  RH  052%=      5-min Rain = 0
KHRS 192010Z 33015KT 08/M02 A3027 RMK A01 T00811015  RH  051%=      5-min Rain = 0
KHRS 192015Z 33014G19KT 08/M02 A3027 RMK A01 T00831016  RH  050%=      5-min Rain = 0
KHRS 192020Z 34014KT 08/M02 A3027 RMK A01 T00811020  RH  050%=      5-min Rain = 0
KHRS 192025Z 33013KT 08/M02 A3027 RMK A01 T00811018  RH  050%=      5-min Rain = 0
KHRS 192030Z 35013KT 08/M02 A3026 RMK A01 T00821016  RH  050%=      5-min Rain = 0
KHRS 192035Z 33015G20KT 08/M02 A3026 RMK A01 T00841019  RH  049%=      5-min Rain = 0
KHRS 192040Z 34014G20KT 08/M02 A3026 RMK A01 T00841020  RH  048%=      5-min Rain = 0
KHRS 192045Z 34014G19KT 08/M02 A3026 RMK A01 T00841019  RH  049%=      5-min Rain = 0
KHRS 192050Z 34012KT 08/M02 A3026 RMK A01 T00831019  RH  049%=      5-min Rain = 0
KHRS 192055Z 33014G19KT 09/M02 A3026 RMK A01 T00851015  RH  050%=      5-min Rain = 0
KHRS 192100Z 33012KT 08/M02 A3026 RMK A01 T00841016  RH  050%=      5-min Rain = 0
KHRS 192105Z 34012G17KT 09/M02 A3026 RMK A01 T00851016  RH  050%=      5-min Rain = 0
KHRS 192110Z 32012KT 09/M01 A3026 RMK A01 T00861014  RH  050%=      5-min Rain = 0
KHRS 192115Z 31010G15KT 09/M01 A3026 RMK A01 T00851011  RH  051%=      5-min Rain = 0
KHRS 192120Z 31012G18KT 09/M01 A3026 RMK A01 T00881007  RH  052%=      5-min Rain = 0
KHRS 192125Z 31011KT 09/M01 A3026 RMK A01 T00871008  RH  052%=      5-min Rain = 0
KHRS 192130Z 32008KT 09/M01 A3026 RMK A01 T00871008  RH  052%=      5-min Rain = 0
KHRS 192135Z 32009G14KT 09/M01 A3026 RMK A01 T00881007  RH  052%=      5-min Rain = 0
KHRS 192140Z 30011G16KT 09/M01 A3026 RMK A01 T00901007  RH  051%=      5-min Rain = 0
KHRS 192145Z 31010KT 09/M01 A3026 RMK A01 T00881009  RH  051%=      5-min Rain = 0
KHRS 192150Z 32009KT 09/M01 A3026 RMK A01 T00851011  RH  051%=      5-min Rain = 0
KHRS 192155Z 32008KT 08/M01 A3026 RMK A01 T00841008  RH  053%=      5-min Rain = 0
KHRS 192200Z 30008KT 09/M01 A3026 RMK A01 T00871008  RH  052%=      5-min Rain = 0
KHRS 192205Z 30010KT 09/M01 A3025 RMK A01 T00881010  RH  051%=      5-min Rain = 0
KHRS 192210Z 31007KT 09/M01 A3025 RMK A01 T00881010  RH  051%=      5-min Rain = 0
KHRS 192215Z 31008KT 09/M01 A3025 RMK A01 T00891007  RH  051%=      5-min Rain = 0
KHRS 192220Z 30006KT 09/M01 A3025 RMK A01 T00891009  RH  051%=      5-min Rain = 0
KHRS 192225Z 30004KT 09/M01 A3026 RMK A01 T00891008  RH  051%=      5-min Rain = 0
KHRS 192230Z 28006KT 09/M01 A3026 RMK A01 T00901009  RH  050%=      5-min Rain = 0
KHRS 192235Z 29006KT 09/M01 A3025 RMK A01 T00901011  RH  050%=      5-min Rain = 0
KHRS 192240Z 29007KT 09/M01 A3025 RMK A01 T00901013  RH  049%=      5-min Rain = 0
KHRS 192245Z 29006KT 09/M01 A3025 RMK A01 T00891012  RH  050%=      5-min Rain = 0
KHRS 192250Z 31007KT 09/M01 A3025 RMK A01 T00891008  RH  051%=      5-min Rain = 0
KHRS 192255Z 32008KT 09/M01 A3025 RMK A01 T00871009  RH  052%=      5-min Rain = 0
KHRS 192300Z 33008KT 09/M01 A3025 RMK A01 T00851013  RH  051%=      5-min Rain = 0
KHRS 192305Z 32006KT 09/M01 A3025 RMK A01 T00851010  RH  052%=      5-min Rain = 0
KHRS 192310Z 31006KT 09/M01 A3025 RMK A01 T00861007  RH  053%=      5-min Rain = 0
KHRS 192315Z 31006KT 09/M01 A3025 RMK A01 T00851010  RH  052%=      5-min Rain = 0
KHRS 192320Z 33005KT 08/M01 A3026 RMK A01 T00841012  RH  052%=      5-min Rain = 0
KHRS 192325Z 31004KT 08/M01 A3026 RMK A01 T00831007  RH  053%=      5-min Rain = 0
KHRS 192330Z 31004KT 08/M01 A3026 RMK A01 T00831007  RH  054%=      5-min Rain = 0
KHRS 192335Z 31003KT 08/M00 A3026 RMK A01 T00821003  RH  056%=      5-min Rain = 0
KHRS 192340Z 31004KT 08/00 A3026 RMK A01 T00800001  RH  058%=      5-min Rain = 0
KHRS 192345Z 31002KT 08/00 A3026 RMK A01 T00770001  RH  059%=      5-min Rain = 0
KHRS 192350Z 31002KT 08/00 A3025 RMK A01 T00750003  RH  061%=      5-min Rain = 0
KHRS 192355Z 33002KT 07/M01 A3025 RMK A01 T00721005  RH  059%=      5-min Rain = 0
KHRS 200000Z 34003KT 07/M01 A3025 RMK A01 T00691013  RH  057%=      5-min Rain = 0
KHRS 200005Z 35003KT 07/M01 A3025 RMK A01 T00651014  RH  058%=      5-min Rain = 0
KHRS 200010Z 00004KT 06/M02 A3025 RMK A01 T00591016  RH  059%=      5-min Rain = 0
KHRS 200015Z 02003KT 05/M02 A3025 RMK A01 T00511016  RH  062%=      5-min Rain = 0
KHRS 200020Z 02003KT 05/M02 A3025 RMK A01 T00471016  RH  065%=      5-min Rain = 0
KHRS 200025Z 02003KT 04/M02 A3025 RMK A01 T00421015  RH  067%=      5-min Rain = 0
KHRS 200030Z 02005KT 04/M02 A3025 RMK A01 T00411017  RH  067%=      5-min Rain = 0
KHRS 200035Z 03004KT 04/M02 A3025 RMK A01 T00351021  RH  068%=      5-min Rain = 0
KHRS 200040Z 04004KT 03/M02 A3026 RMK A01 T00301021  RH  070%=      5-min Rain = 0
KHRS 200045Z 05006KT 03/M02 A3025 RMK A01 T00261022  RH  071%=      5-min Rain = 0
KHRS 200050Z 05007KT 02/M02 A3025 RMK A01 T00221024  RH  072%=      5-min Rain = 0
KHRS 200055Z 05007KT 02/M03 A3025 RMK A01 T00191025  RH  073%=      5-min Rain = 0
KHRS 200100Z 06006KT 02/M03 A3025 RMK A01 T00161027  RH  074%=      5-min Rain = 0
KHRS 200105Z 07006KT 01/M03 A3025 RMK A01 T00141027  RH  075%=      5-min Rain = 0
KHRS 200110Z 07007KT 01/M03 A3025 RMK A01 T00131028  RH  075%=      5-min Rain = 0
KHRS 200115Z 07008KT 01/M03 A3024 RMK A01 T00101030  RH  075%=      5-min Rain = 0
KHRS 200120Z 08007KT 01/M03 A3024 RMK A01 T00081031  RH  076%=      5-min Rain = 0
KHRS 200125Z 08007KT 01/M03 A3024 RMK A01 T00051033  RH  076%=      5-min Rain = 0
KHRS 200130Z 08007KT 00/M03 A3024 RMK A01 T00021034  RH  077%=      5-min Rain = 0
KHRS 200135Z 08008KT M00/M04 A3023 RMK A01 T10011036  RH  078%=      5-min Rain = 0
KHRS 200140Z 09008KT M00/M04 A3023 RMK A01 T10031036  RH  079%=      5-min Rain = 0
KHRS 200145Z 09007KT M01/M04 A3023 RMK A01 T10061038  RH  079%=      5-min Rain = 0
KHRS 200150Z 09007KT M01/M04 A3023 RMK A01 T10081040  RH  080%=      5-min Rain = 0
KHRS 200155Z 09006KT M01/M04 A3024 RMK A01 T10091042  RH  080%=      5-min Rain = 0
KHRS 200200Z 10005KT M01/M04 A3024 RMK A01 T10101042  RH  080%=      5-min Rain = 0
KHRS 200205Z 11004KT M01/M04 A3025 RMK A01 T10091040  RH  081%=      5-min Rain = 0
KHRS 200210Z 11005KT M01/M04 A3025 RMK A01 T10071039  RH  080%=      5-min Rain = 0
KHRS 200215Z 10003KT M01/M04 A3026 RMK A01 T10101043  RH  079%=      5-min Rain = 0
KHRS 200220Z 10004KT M01/M04 A3026 RMK A01 T10121044  RH  080%=      5-min Rain = 0
KHRS 200225Z 09004KT M01/M04 A3026 RMK A01 T10111042  RH  081%=      5-min Rain = 0
KHRS 200230Z 08004KT M01/M04 A3026 RMK A01 T10101042  RH  080%=      5-min Rain = 0
KHRS 200235Z 09005KT M01/M04 A3026 RMK A01 T10121043  RH  080%=      5-min Rain = 0
KHRS 200240Z 11006KT M01/M04 A3025 RMK A01 T10121042  RH  081%=      5-min Rain = 0
KHRS 200245Z 12006KT M01/M04 A3025 RMK A01 T10131044  RH  080%=      5-min Rain = 0
KHRS 200250Z 11005KT M02/M05 A3026 RMK A01 T10171046  RH  082%=      5-min Rain = 0
KHRS 200255Z 12005KT M01/M04 A3026 RMK A01 T10141041  RH  083%=      5-min Rain = 0
KHRS 200300Z 12006KT M01/M04 A3025 RMK A01 T10121044  RH  080%=      5-min Rain = 0
KHRS 200305Z 11007KT M02/M05 A3024 RMK A01 T10201051  RH  080%=      5-min Rain = 0
KHRS 200310Z 11007KT M02/M05 A3024 RMK A01 T10231050  RH  083%=      5-min Rain = 0
KHRS 200315Z 12007KT M02/M05 A3025 RMK A01 T10241048  RH  085%=      5-min Rain = 0
KHRS 200320Z 11006KT M02/M05 A3025 RMK A01 T10211045  RH  084%=      5-min Rain = 0
KHRS 200325Z 11006KT M02/M05 A3024 RMK A01 T10211047  RH  083%=      5-min Rain = 0
KHRS 200330Z 11007KT M02/M05 A3024 RMK A01 T10241050  RH  083%=      5-min Rain = 0
KHRS 200335Z 11006KT M02/M05 A3024 RMK A01 T10231049  RH  083%=      5-min Rain = 0
KHRS 200340Z 11006KT M02/M05 A3025 RMK A01 T10211047  RH  083%=      5-min Rain = 0
KHRS 200345Z 12006KT M02/M05 A3024 RMK A01 T10201048  RH  082%=      5-min Rain = 0
KHRS 200350Z 12006KT M02/M05 A3025 RMK A01 T10211049  RH  082%=      5-min Rain = 0
KHRS 200355Z 12006KT M02/M05 A3025 RMK A01 T10201048  RH  083%=      5-min Rain = 0
KHRS 200400Z 13006KT M02/M05 A3025 RMK A01 T10211049  RH  082%=      5-min Rain = 0
KHRS 200405Z 13006KT M02/M05 A3025 RMK A01 T10201047  RH  083%=      5-min Rain = 0
KHRS 200410Z 13006KT M02/M05 A3025 RMK A01 T10181047  RH  081%=      5-min Rain = 0
KHRS 200415Z 14006KT M02/M05 A3025 RMK A01 T10181049  RH  080%=      5-min Rain = 0
KHRS 200420Z 14006KT M02/M05 A3025 RMK A01 T10211052  RH  080%=      5-min Rain = 0
KHRS 200425Z 13006KT M02/M05 A3025 RMK A01 T10231052  RH  081%=      5-min Rain = 0
KHRS 200430Z 13006KT M03/M05 A3025 RMK A01 T10251053  RH  082%=      5-min Rain = 0
KHRS 200435Z 13005KT M03/M05 A3025 RMK A01 T10261053  RH  082%=      5-min Rain = 0
KHRS 200440Z 14005KT M02/M05 A3025 RMK A01 T10241050  RH  083%=      5-min Rain = 0
KHRS 200445Z 15006KT M02/M05 A3025 RMK A01 T10201048  RH  082%=      5-min Rain = 0
KHRS 200450Z 15005KT M02/M05 A3025 RMK A01 T10181048  RH  081%=      5-min Rain = 0
KHRS 200455Z 15005KT M02/M05 A3026 RMK A01 T10171048  RH  080%=      5-min Rain = 0
KHRS 200500Z 15005KT M02/M05 A3025 RMK A01 T10161048  RH  079%=      5-min Rain = 0
KHRS 200505Z 14007KT M02/M05 A3024 RMK A01 T10181052  RH  079%=      5-min Rain = 0
KHRS 200510Z 15006KT M02/M05 A3024 RMK A01 T10221052  RH  081%=      5-min Rain = 0
KHRS 200515Z 15006KT M02/M05 A3024 RMK A01 T10221051  RH  081%=      5-min Rain = 0
KHRS 200520Z 16006KT M02/M05 A3025 RMK A01 T10221052  RH  081%=      5-min Rain = 0
KHRS 200525Z 16006KT M02/M05 A3025 RMK A01 T10211051  RH  081%=      5-min Rain = 0
KHRS 200530Z 17005KT M02/M05 A3026 RMK A01 T10221053  RH  080%=      5-min Rain = 0
KHRS 200535Z 16006KT M02/M05 A3025 RMK A01 T10211051  RH  081%=      5-min Rain = 0
KHRS 200540Z 16005KT M02/M05 A3025 RMK A01 T10201052  RH  080%=      5-min Rain = 0
KHRS 200545Z 16005KT M02/M05 A3026 RMK A01 T10231054  RH  080%=      5-min Rain = 0
KHRS 200550Z 16005KT M02/M05 A3026 RMK A01 T10241053  RH  081%=      5-min Rain = 0
KHRS 200555Z 16005KT M02/M05 A3026 RMK A01 T10241054  RH  081%=      5-min Rain = 0

Page generated in 0.036 seconds.